Terminal Aerodrome Forecast
Issued by NWS Billings, MT

Home | Current Version | Previous Version | Graphics & Text | Print | Product List | Glossary On
Versions: 1 2 3 4 5 6 7 8 9 10 11 12 13 14 15 16 17 18 19 20 21 22 23 24 25 26 27 28
000
FTUS45 KBYZ 230322 AAB
TAFMLS
TAF AMD
KMLS 230322Z 2303/2324 29015KT P6SM VCSH OVC100
     FM231000 28020G27KT P6SM BKN080
     FM231800 31026G35KT P6SM OVC060=

USA.gov is the U.S. government's official web portal to all federal, state and local government web resources and services.